Dallas, Texas
Traffic Map
Current Weather Conditions
Dallas, Texas
Overcast Light Rain
Overcast
18°
Feels Like: 18°
Wind Chill: 18° Ceiling: 4300
Heat Index: 18° Visibility: 4mi
Dew Point: 16° Wind: 9mph
Humidity: 90% Direction: 300° (WNW)
Pressure: 30.08in Gusts: 0mph
Raw Report DataKDAL 210527Z 30008KT 4SM -RA BR FEW006 BKN043 OVC050 18/16 A3008 RMK AO2 RAB0454 PRESRR P0000 T01780161
Traffic Incident Summary
Active as of:
Severity:
Category:
InformationThere was an issue retrieving the traffic information for this location. Please try a different location or try again shortly.
Advertisements
At Last! Intellicast now available for iPhone and Android